sensor_id;sensor_type;location;lat;lon;timestamp;pressure;altitude;pressure_sealevel;temperature;humidity
29903;BME280;30288;50.514;9.678;2023-05-25T00:01:17;99426.53;;;4.35;100.00
29903;BME280;30288;50.514;9.678;2023-05-25T00:03:22;99438.16;;;4.33;100.00
29903;BME280;30288;50.514;9.678;2023-05-25T00:05:32;99438.16;;;4.33;100.00
29903;BME280;30288;50.514;9.678;2023-05-25T00:07:37;99433.13;;;4.27;100.00
29903;BME280;30288;50.514;9.678;2023-05-25T00:09:43;99430.59;;;4.24;100.00
29903;BME280;30288;50.514;9.678;2023-05-25T00:11:48;99440.50;;;4.18;100.00
29903;BME280;30288;50.514;9.678;2023-05-25T00:13:54;99434.75;;;4.25;100.00
29903;BME280;30288;50.514;9.678;2023-05-25T00:15:59;99436.41;;;4.23;100.00
29903;BME280;30288;50.514;9.678;2023-05-25T00:18:04;99433.91;;;4.23;100.00
29903;BME280;30288;50.514;9.678;2023-05-25T00:20:11;99437.22;;;4.24;100.00
29903;BME280;30288;50.514;9.678;2023-05-25T00:22:18;99435.66;;;4.35;100.00
29903;BME280;30288;50.514;9.678;2023-05-25T00:24:24;99433.16;;;4.30;100.00
29903;BME280;30288;50.514;9.678;2023-05-25T00:26:29;99436.31;;;4.14;100.00
29903;BME280;30288;50.514;9.678;2023-05-25T00:28:35;99442.97;;;4.12;100.00
29903;BME280;30288;50.514;9.678;2023-05-25T00:30:40;99439.59;;;4.09;100.00
29903;BME280;30288;50.514;9.678;2023-05-25T00:32:45;99438.72;;;4.02;100.00
29903;BME280;30288;50.514;9.678;2023-05-25T00:34:50;99441.25;;;4.07;100.00
29903;BME280;30288;50.514;9.678;2023-05-25T00:36:55;99433.81;;;4.11;100.00
29903;BME280;30288;50.514;9.678;2023-05-25T00:39:04;99435.38;;;4.02;100.00
29903;BME280;30288;50.514;9.678;2023-05-25T00:41:09;99432.84;;;3.97;100.00
29903;BME280;30288;50.514;9.678;2023-05-25T00:43:14;99431.16;;;3.96;100.00
29903;BME280;30288;50.514;9.678;2023-05-25T00:45:19;99429.44;;;3.89;100.00
29903;BME280;30288;50.514;9.678;2023-05-25T00:47:25;99426.81;;;3.75;100.00
29903;BME280;30288;50.514;9.678;2023-05-25T00:49:34;99425.94;;;3.72;100.00
29903;BME280;30288;50.514;9.678;2023-05-25T00:51:40;99432.63;;;3.76;100.00
29903;BME280;30288;50.514;9.678;2023-05-25T00:53:48;99436.03;;;3.84;100.00
29903;BME280;30288;50.514;9.678;2023-05-25T00:56:04;99431.06;;;3.85;100.00
29903;BME280;30288;50.514;9.678;2023-05-25T00:58:10;99431.84;;;3.80;100.00
29903;BME280;30288;50.514;9.678;2023-05-25T01:00:17;99430.06;;;3.71;100.00
29903;BME280;30288;50.514;9.678;2023-05-25T01:02:23;99435.00;;;3.65;100.00
29903;BME280;30288;50.514;9.678;2023-05-25T01:04:32;99436.66;;;3.65;100.00
29903;BME280;30288;50.514;9.678;2023-05-25T01:06:43;99432.59;;;3.73;100.00
29903;BME280;30288;50.514;9.678;2023-05-25T01:08:55;99432.59;;;3.73;100.00
29903;BME280;30288;50.514;9.678;2023-05-25T01:11:05;99433.50;;;3.79;100.00
29903;BME280;30288;50.514;9.678;2023-05-25T01:13:14;99426.00;;;3.78;100.00
29903;BME280;30288;50.514;9.678;2023-05-25T01:15:22;99428.59;;;3.87;100.00
29903;BME280;30288;50.514;9.678;2023-05-25T01:17:28;99431.06;;;3.84;100.00
29903;BME280;30288;50.514;9.678;2023-05-25T01:19:34;99428.59;;;3.90;100.00
29903;BME280;30288;50.514;9.678;2023-05-25T01:21:49;99433.72;;;4.02;100.00
29903;BME280;30288;50.514;9.678;2023-05-25T01:24:04;99428.00;;;4.12;100.00
29903;BME280;30288;50.514;9.678;2023-05-25T01:26:16;99435.28;;;3.92;100.00
29903;BME280;30288;50.514;9.678;2023-05-25T01:28:29;99432.59;;;3.73;100.00
29903;BME280;30288;50.514;9.678;2023-05-25T01:30:36;99429.13;;;3.62;100.00
29903;BME280;30288;50.514;9.678;2023-05-25T01:32:44;99427.59;;;3.70;100.00
29903;BME280;30288;50.514;9.678;2023-05-25T01:34:51;99436.03;;;3.84;100.00
29903;BME280;30288;50.514;9.678;2023-05-25T01:37:02;99441.06;;;3.90;100.00
29903;BME280;30288;50.514;9.678;2023-05-25T01:39:10;99440.97;;;3.81;100.00
29903;BME280;30288;50.514;9.678;2023-05-25T01:41:16;99437.47;;;3.61;100.00
29903;BME280;30288;50.514;9.678;2023-05-25T01:43:23;99439.78;;;3.48;100.00
29903;BME280;30288;50.514;9.678;2023-05-25T01:45:29;99439.72;;;3.44;100.00
29903;BME280;30288;50.514;9.678;2023-05-25T01:47:43;99442.97;;;3.35;100.00
29903;BME280;30288;50.514;9.678;2023-05-25T01:49:59;99442.19;;;3.42;100.00
29903;BME280;30288;50.514;9.678;2023-05-25T01:52:17;99442.06;;;3.30;100.00
29903;BME280;30288;50.514;9.678;2023-05-25T01:54:31;99439.41;;;3.17;100.00
29903;BME280;30288;50.514;9.678;2023-05-25T01:56:43;99431.75;;;3.03;100.00
29903;BME280;30288;50.514;9.678;2023-05-25T01:58:50;99439.91;;;2.93;100.00
29903;BME280;30288;50.514;9.678;2023-05-25T02:00:55;99435.59;;;2.80;100.00
29903;BME280;30288;50.514;9.678;2023-05-25T02:03:03;99447.19;;;2.79;100.00
29903;BME280;30288;50.514;9.678;2023-05-25T02:05:10;99439.69;;;2.78;100.00
29903;BME280;30288;50.514;9.678;2023-05-25T02:07:18;99441.47;;;2.85;100.00
29903;BME280;30288;50.514;9.678;2023-05-25T02:09:23;99443.94;;;2.85;100.00
29903;BME280;30288;50.514;9.678;2023-05-25T02:11:29;99439.88;;;2.90;100.00
29903;BME280;30288;50.514;9.678;2023-05-25T02:13:34;99443.03;;;2.80;100.00
29903;BME280;30288;50.514;9.678;2023-05-25T02:15:39;99441.38;;;2.79;100.00
29903;BME280;30288;50.514;9.678;2023-05-25T02:17:44;99445.59;;;2.86;100.00
29903;BME280;30288;50.514;9.678;2023-05-25T02:19:50;99440.78;;;2.96;100.00
29903;BME280;30288;50.514;9.678;2023-05-25T02:21:55;99445.63;;;2.87;100.00
29903;BME280;30288;50.514;9.678;2023-05-25T02:24:04;99441.28;;;2.73;100.00
29903;BME280;30288;50.514;9.678;2023-05-25T02:26:10;99435.38;;;2.68;100.00
29903;BME280;30288;50.514;9.678;2023-05-25T02:28:17;99423.75;;;2.65;100.00
29903;BME280;30288;50.514;9.678;2023-05-25T02:30:23;99427.03;;;2.62;100.00
29903;BME280;30288;50.514;9.678;2023-05-25T02:32:31;99415.41;;;2.60;100.00
29903;BME280;30288;50.514;9.678;2023-05-25T02:34:37;99411.28;;;2.63;100.00
29903;BME280;30288;50.514;9.678;2023-05-25T02:36:43;99412.72;;;2.46;100.00
29903;BME280;30288;50.514;9.678;2023-05-25T02:38:48;99412.59;;;2.40;100.00
29903;BME280;30288;50.514;9.678;2023-05-25T02:40:56;99409.09;;;2.29;100.00
29903;BME280;30288;50.514;9.678;2023-05-25T02:43:02;99410.91;;;2.36;100.00
29903;BME280;30288;50.514;9.678;2023-05-25T02:45:09;99412.78;;;2.52;100.00
29903;BME280;30288;50.514;9.678;2023-05-25T02:47:15;99409.31;;;2.41;100.00
29903;BME280;30288;50.514;9.678;2023-05-25T02:49:22;99422.69;;;2.49;100.00
29903;BME280;30288;50.514;9.678;2023-05-25T02:51:27;99420.09;;;2.43;100.00
29903;BME280;30288;50.514;9.678;2023-05-25T02:53:34;99424.09;;;2.32;100.00
29903;BME280;30288;50.514;9.678;2023-05-25T02:55:39;99418.22;;;2.29;100.00
29903;BME280;30288;50.514;9.678;2023-05-25T02:57:53;99423.94;;;2.23;100.00
29903;BME280;30288;50.514;9.678;2023-05-25T03:00:16;99414.88;;;2.27;100.00
29903;BME280;30288;50.514;9.678;2023-05-25T03:02:22;99420.69;;;2.27;100.00
29903;BME280;30288;50.514;9.678;2023-05-25T03:04:27;99418.91;;;2.20;100.00
29903;BME280;30288;50.514;9.678;2023-05-25T03:06:36;99426.22;;;2.11;100.00
29903;BME280;30288;50.514;9.678;2023-05-25T03:08:48;99430.97;;;2.00;100.00
29903;BME280;30288;50.514;9.678;2023-05-25T03:10:54;99427.28;;;2.25;100.00
29903;BME280;30288;50.514;9.678;2023-05-25T03:13:02;99427.28;;;2.25;100.00
29903;BME280;30288;50.514;9.678;2023-05-25T03:15:09;99423.84;;;2.17;100.00
29903;BME280;30288;50.514;9.678;2023-05-25T03:17:15;99432.84;;;2.12;100.00
29903;BME280;30288;50.514;9.678;2023-05-25T03:19:20;99437.03;;;2.13;100.00
29903;BME280;30288;50.514;9.678;2023-05-25T03:21:26;99438.63;;;2.11;100.00
29903;BME280;30288;50.514;9.678;2023-05-25T03:23:31;99442.19;;;2.25;100.00
29903;BME280;30288;50.514;9.678;2023-05-25T03:25:40;99437.88;;;2.15;100.00
29903;BME280;30288;50.514;9.678;2023-05-25T03:27:45;99445.31;;;2.15;100.00
29903;BME280;30288;50.514;9.678;2023-05-25T03:29:54;99445.25;;;2.09;100.00
29903;BME280;30288;50.514;9.678;2023-05-25T03:31:59;99452.56;;;2.04;100.00
29903;BME280;30288;50.514;9.678;2023-05-25T03:34:07;99459.31;;;2.10;100.00
29903;BME280;30288;50.514;9.678;2023-05-25T03:36:13;99453.50;;;2.08;100.00
29903;BME280;30288;50.514;9.678;2023-05-25T03:38:19;99453.53;;;2.11;100.00
29903;BME280;30288;50.514;9.678;2023-05-25T03:40:24;99456.22;;;2.22;100.00
29903;BME280;30288;50.514;9.678;2023-05-25T03:42:30;99458.53;;;2.14;100.00
29903;BME280;30288;50.514;9.678;2023-05-25T03:44:35;99468.47;;;2.14;100.00
29903;BME280;30288;50.514;9.678;2023-05-25T03:46:45;99465.19;;;2.15;100.00
29903;BME280;30288;50.514;9.678;2023-05-25T03:48:50;99463.50;;;2.14;100.00
29903;BME280;30288;50.514;9.678;2023-05-25T03:50:55;99456.28;;;2.26;100.00
29903;BME280;30288;50.514;9.678;2023-05-25T03:53:01;99452.09;;;2.24;100.00
29903;BME280;30288;50.514;9.678;2023-05-25T03:55:07;99451.81;;;2.56;100.00
29903;BME280;30288;50.514;9.678;2023-05-25T03:57:12;99452.66;;;2.58;100.00
29903;BME280;30288;50.514;9.678;2023-05-25T03:59:18;99457.66;;;2.61;100.00
29903;BME280;30288;50.514;9.678;2023-05-25T04:01:23;99464.25;;;2.56;100.00
29903;BME280;30288;50.514;9.678;2023-05-25T04:03:33;99465.75;;;2.48;100.00
29903;BME280;30288;50.514;9.678;2023-05-25T04:05:39;99457.38;;;2.43;100.00
29903;BME280;30288;50.514;9.678;2023-05-25T04:07:44;99459.03;;;2.41;100.00
29903;BME280;30288;50.514;9.678;2023-05-25T04:09:50;99463.41;;;2.56;100.00
29903;BME280;30288;50.514;9.678;2023-05-25T04:11:55;99451.94;;;2.64;100.00
29903;BME280;30288;50.514;9.678;2023-05-25T04:14:00;99451.31;;;2.79;100.00
29903;BME280;30288;50.514;9.678;2023-05-25T04:16:09;99451.31;;;2.79;100.00
29903;BME280;30288;50.514;9.678;2023-05-25T04:18:16;99456.19;;;2.73;100.00
29903;BME280;30288;50.514;9.678;2023-05-25T04:20:25;99454.09;;;2.98;100.00
29903;BME280;30288;50.514;9.678;2023-05-25T04:22:30;99446.94;;;3.24;100.00
29903;BME280;30288;50.514;9.678;2023-05-25T04:24:36;99450.34;;;3.29;100.00
29903;BME280;30288;50.514;9.678;2023-05-25T04:26:42;99453.69;;;3.31;100.00
29903;BME280;30288;50.514;9.678;2023-05-25T04:28:48;99457.09;;;3.39;100.00
29903;BME280;30288;50.514;9.678;2023-05-25T04:31:13;99457.97;;;3.41;100.00
29903;BME280;30288;50.514;9.678;2023-05-25T04:33:24;99464.66;;;3.45;100.00
29903;BME280;30288;50.514;9.678;2023-05-25T04:35:37;99472.16;;;3.48;100.00
29903;BME280;30288;50.514;9.678;2023-05-25T04:37:43;99473.84;;;3.49;100.00
29903;BME280;30288;50.514;9.678;2023-05-25T04:39:49;99473.91;;;3.56;100.00
29903;BME280;30288;50.514;9.678;2023-05-25T04:41:55;99477.31;;;3.64;100.00
29903;BME280;30288;50.514;9.678;2023-05-25T04:44:00;99483.97;;;3.65;100.00
29903;BME280;30288;50.514;9.678;2023-05-25T04:46:20;99479.00;;;3.65;100.00
29903;BME280;30288;50.514;9.678;2023-05-25T04:48:25;99483.19;;;3.69;100.00
29903;BME280;30288;50.514;9.678;2023-05-25T04:50:34;99483.28;;;3.78;100.00
29903;BME280;30288;50.514;9.678;2023-05-25T04:52:45;99482.53;;;3.85;100.00
29903;BME280;30288;50.514;9.678;2023-05-25T04:54:50;99484.31;;;3.95;100.00
29903;BME280;30288;50.514;9.678;2023-05-25T04:56:55;99489.44;;;4.07;100.00
29903;BME280;30288;50.514;9.678;2023-05-25T04:59:01;99493.66;;;4.16;100.00
29903;BME280;30288;50.514;9.678;2023-05-25T05:01:08;99488.00;;;4.30;100.00
29903;BME280;30288;50.514;9.678;2023-05-25T05:03:14;99483.94;;;4.42;100.00
29903;BME280;30288;50.514;9.678;2023-05-25T05:05:19;99479.88;;;4.53;100.00
29903;BME280;30288;50.514;9.678;2023-05-25T05:07:26;99475.00;;;4.68;100.00
29903;BME280;30288;50.514;9.678;2023-05-25T05:09:36;99478.44;;;4.82;100.00
29903;BME280;30288;50.514;9.678;2023-05-25T05:11:42;99481.00;;;4.93;100.00
29903;BME280;30288;50.514;9.678;2023-05-25T05:13:48;99486.09;;;5.09;100.00
29903;BME280;30288;50.514;9.678;2023-05-25T05:15:53;99495.31;;;5.19;100.00
29903;BME280;30288;50.514;9.678;2023-05-25T05:17:58;99497.09;;;5.39;100.00
29903;BME280;30288;50.514;9.678;2023-05-25T05:20:07;99492.16;;;5.54;100.00
29903;BME280;30288;50.514;9.678;2023-05-25T05:22:13;99498.88;;;5.64;100.00
29903;BME280;30288;50.514;9.678;2023-05-25T05:24:20;99505.59;;;5.77;100.00
29903;BME280;30288;50.514;9.678;2023-05-25T05:26:29;99514.00;;;5.88;100.00
29903;BME280;30288;50.514;9.678;2023-05-25T05:28:55;99519.03;;;6.00;100.00
29903;BME280;30288;50.514;9.678;2023-05-25T05:31:02;99524.88;;;6.13;100.00
29903;BME280;30288;50.514;9.678;2023-05-25T05:33:09;99519.91;;;6.28;100.00
29903;BME280;30288;50.514;9.678;2023-05-25T05:35:20;99524.13;;;6.40;100.00
29903;BME280;30288;50.514;9.678;2023-05-25T05:37:34;99521.63;;;6.56;100.00
29903;BME280;30288;50.514;9.678;2023-05-25T05:39:40;99524.13;;;6.72;100.00
29903;BME280;30288;50.514;9.678;2023-05-25T05:41:48;99524.13;;;6.85;100.00
29903;BME280;30288;50.514;9.678;2023-05-25T05:43:55;99526.63;;;6.99;100.00
29903;BME280;30288;50.514;9.678;2023-05-25T05:46:00;99527.47;;;7.12;100.00
29903;BME280;30288;50.514;9.678;2023-05-25T05:48:06;99527.47;;;7.27;100.00
29903;BME280;30288;50.514;9.678;2023-05-25T05:50:12;99536.59;;;7.43;100.00
29903;BME280;30288;50.514;9.678;2023-05-25T05:52:18;99527.34;;;7.63;100.00
29903;BME280;30288;50.514;9.678;2023-05-25T05:54:23;99532.28;;;7.83;100.00
29903;BME280;30288;50.514;9.678;2023-05-25T05:56:30;99529.66;;;8.04;100.00
29903;BME280;30288;50.514;9.678;2023-05-25T05:58:37;99531.28;;;8.22;100.00
29903;BME280;30288;50.514;9.678;2023-05-25T06:00:43;99530.38;;;8.35;100.00
29903;BME280;30288;50.514;9.678;2023-05-25T06:02:48;99539.44;;;8.57;100.00
29903;BME280;30288;50.514;9.678;2023-05-25T06:04:57;99541.78;;;8.77;100.00
29903;BME280;30288;50.514;9.678;2023-05-25T06:07:03;99539.22;;;8.85;100.00
29903;BME280;30288;50.514;9.678;2023-05-25T06:09:10;99534.06;;;9.01;100.00
29903;BME280;30288;50.514;9.678;2023-05-25T06:11:15;99536.41;;;9.21;100.00
29903;BME280;30288;50.514;9.678;2023-05-25T06:13:20;99541.25;;;9.36;100.00
29903;BME280;30288;50.514;9.678;2023-05-25T06:15:28;99536.94;;;9.49;100.00
29903;BME280;30288;50.514;9.678;2023-05-25T06:17:35;99544.34;;;9.62;100.00
29903;BME280;30288;50.514;9.678;2023-05-25T06:19:44;99542.44;;;9.80;100.00
29903;BME280;30288;50.514;9.678;2023-05-25T06:21:49;99549.75;;;10.01;100.00
29903;BME280;30288;50.514;9.678;2023-05-25T06:23:55;99554.56;;;10.21;100.00
29903;BME280;30288;50.514;9.678;2023-05-25T06:26:05;99555.16;;;10.36;100.00
29903;BME280;30288;50.514;9.678;2023-05-25T06:28:11;99549.91;;;10.53;100.00
29903;BME280;30288;50.514;9.678;2023-05-25T06:30:16;99556.44;;;10.65;100.00
29903;BME280;30288;50.514;9.678;2023-05-25T06:32:25;99544.47;;;10.79;100.00
29903;BME280;30288;50.514;9.678;2023-05-25T06:34:30;99544.22;;;10.94;100.00
29903;BME280;30288;50.514;9.678;2023-05-25T06:36:39;99542.38;;;11.05;100.00
29903;BME280;30288;50.514;9.678;2023-05-25T06:38:45;99546.41;;;11.15;100.00
29903;BME280;30288;50.514;9.678;2023-05-25T06:40:51;99539.44;;;11.28;100.00
29903;BME280;30288;50.514;9.678;2023-05-25T06:42:56;99544.97;;;11.47;100.00
29903;BME280;30288;50.514;9.678;2023-05-25T06:45:18;99545.38;;;11.73;100.00
29903;BME280;30288;50.514;9.678;2023-05-25T06:47:25;99535.75;;;11.90;100.00
29903;BME280;30288;50.514;9.678;2023-05-25T06:49:32;99535.56;;;11.99;100.00
29903;BME280;30288;50.514;9.678;2023-05-25T06:51:37;99538.84;;;12.03;100.00
29903;BME280;30288;50.514;9.678;2023-05-25T06:53:43;99537.34;;;11.94;100.00
29903;BME280;30288;50.514;9.678;2023-05-25T06:55:51;99530.28;;;12.11;100.00
29903;BME280;30288;50.514;9.678;2023-05-25T06:57:57;99535.97;;;12.19;100.00
29903;BME280;30288;50.514;9.678;2023-05-25T07:00:04;99534.75;;;12.36;100.00
29903;BME280;30288;50.514;9.678;2023-05-25T07:02:11;99539.63;;;12.45;100.00
29903;BME280;30288;50.514;9.678;2023-05-25T07:04:19;99539.22;;;12.63;100.00
29903;BME280;30288;50.514;9.678;2023-05-25T07:06:26;99531.41;;;12.72;100.00
29903;BME280;30288;50.514;9.678;2023-05-25T07:08:34;99526.13;;;12.81;100.00
29903;BME280;30288;50.514;9.678;2023-05-25T07:10:40;99534.19;;;12.97;100.00
29903;BME280;30288;50.514;9.678;2023-05-25T07:12:46;99528.78;;;13.10;100.00
29903;BME280;30288;50.514;9.678;2023-05-25T07:14:51;99533.69;;;13.17;100.00
29903;BME280;30288;50.514;9.678;2023-05-25T07:16:56;99532.66;;;13.24;100.00
29903;BME280;30288;50.514;9.678;2023-05-25T07:19:01;99532.28;;;13.39;100.00
29903;BME280;30288;50.514;9.678;2023-05-25T07:21:11;99523.63;;;13.46;100.00
29903;BME280;30288;50.514;9.678;2023-05-25T07:23:16;99526.38;;;13.69;100.00
29903;BME280;30288;50.514;9.678;2023-05-25T07:25:21;99525.94;;;13.84;100.00
29903;BME280;30288;50.514;9.678;2023-05-25T07:27:29;99525.88;;;13.87;100.00
29903;BME280;30288;50.514;9.678;2023-05-25T07:29:34;99524.94;;;13.90;100.00
29903;BME280;30288;50.514;9.678;2023-05-25T07:31:40;99520.81;;;13.87;100.00
29903;BME280;30288;50.514;9.678;2023-05-25T07:33:45;99520.44;;;13.99;100.00
29903;BME280;30288;50.514;9.678;2023-05-25T07:35:51;99527.59;;;14.15;100.00
29903;BME280;30288;50.514;9.678;2023-05-25T07:38:01;99524.44;;;14.36;100.00
29903;BME280;30288;50.514;9.678;2023-05-25T07:40:08;99523.97;;;14.51;100.00
29903;BME280;30288;50.514;9.678;2023-05-25T07:42:13;99516.75;;;14.65;100.00
29903;BME280;30288;50.514;9.678;2023-05-25T07:44:22;99527.94;;;14.86;100.00
29903;BME280;30288;50.514;9.678;2023-05-25T07:46:27;99527.72;;;14.92;100.00
29903;BME280;30288;50.514;9.678;2023-05-25T07:48:32;99525.19;;;15.17;100.00
29903;BME280;30288;50.514;9.678;2023-05-25T07:50:38;99524.13;;;15.24;100.00
29903;BME280;30288;50.514;9.678;2023-05-25T07:52:43;99522.94;;;15.34;100.00
29903;BME280;30288;50.514;9.678;2023-05-25T07:54:52;99524.16;;;15.47;100.00
29903;BME280;30288;50.514;9.678;2023-05-25T07:56:57;99518.09;;;15.51;100.00
29903;BME280;30288;50.514;9.678;2023-05-25T07:59:03;99518.09;;;15.74;100.00
29903;BME280;30288;50.514;9.678;2023-05-25T08:01:08;99523.84;;;15.80;100.00
29903;BME280;30288;50.514;9.678;2023-05-25T08:03:13;99517.22;;;15.99;100.00
29903;BME280;30288;50.514;9.678;2023-05-25T08:05:19;99524.84;;;15.99;100.00
29903;BME280;30288;50.514;9.678;2023-05-25T08:07:24;99520.19;;;16.10;100.00
29903;BME280;30288;50.514;9.678;2023-05-25T08:09:29;99528.22;;;16.21;100.00
29903;BME280;30288;50.514;9.678;2023-05-25T08:11:36;99522.91;;;16.27;100.00
29903;BME280;30288;50.514;9.678;2023-05-25T08:13:42;99525.56;;;16.24;100.00
29903;BME280;30288;50.514;9.678;2023-05-25T08:15:47;99520.88;;;16.35;100.00
29903;BME280;30288;50.514;9.678;2023-05-25T08:17:53;99523.44;;;16.57;100.00
29903;BME280;30288;50.514;9.678;2023-05-25T08:19:58;99521.03;;;16.76;100.00
29903;BME280;30288;50.514;9.678;2023-05-25T08:22:07;99517.78;;;16.92;100.00
29903;BME280;30288;50.514;9.678;2023-05-25T08:24:12;99513.41;;;16.96;100.00
29903;BME280;30288;50.514;9.678;2023-05-25T08:26:21;99517.19;;;17.06;100.00
29903;BME280;30288;50.514;9.678;2023-05-25T08:28:49;99509.22;;;17.15;100.00
29903;BME280;30288;50.514;9.678;2023-05-25T08:30:54;99511.38;;;17.04;100.00
29903;BME280;30288;50.514;9.678;2023-05-25T08:33:00;99515.28;;;17.31;100.00
29903;BME280;30288;50.514;9.678;2023-05-25T08:35:07;99513.38;;;17.36;100.00
29903;BME280;30288;50.514;9.678;2023-05-25T08:37:16;99515.47;;;17.47;100.00
29903;BME280;30288;50.514;9.678;2023-05-25T08:39:21;99508.59;;;17.68;100.00
29903;BME280;30288;50.514;9.678;2023-05-25T08:41:27;99508.75;;;17.83;100.00
29903;BME280;30288;50.514;9.678;2023-05-25T08:43:34;99512.91;;;17.86;100.00
29903;BME280;30288;50.514;9.678;2023-05-25T08:45:46;99511.50;;;17.79;100.00
29903;BME280;30288;50.514;9.678;2023-05-25T08:47:54;99512.19;;;17.82;100.00
29903;BME280;30288;50.514;9.678;2023-05-25T08:50:04;99516.47;;;17.82;100.00
29903;BME280;30288;50.514;9.678;2023-05-25T08:52:13;99504.63;;;18.00;100.00
29903;BME280;30288;50.514;9.678;2023-05-25T08:54:24;99515.75;;;18.16;100.00
29903;BME280;30288;50.514;9.678;2023-05-25T08:56:46;99511.28;;;18.02;100.00
29903;BME280;30288;50.514;9.678;2023-05-25T08:59:00;99510.94;;;18.46;100.00
29903;BME280;30288;50.514;9.678;2023-05-25T09:01:14;99511.44;;;18.54;100.00
29903;BME280;30288;50.514;9.678;2023-05-25T09:03:22;99520.81;;;18.53;100.00
29903;BME280;30288;50.514;9.678;2023-05-25T09:05:28;99517.38;;;18.54;100.00
29903;BME280;30288;50.514;9.678;2023-05-25T09:07:34;99521.19;;;18.63;100.00
29903;BME280;30288;50.514;9.678;2023-05-25T09:09:40;99519.41;;;18.65;100.00
29903;BME280;30288;50.514;9.678;2023-05-25T09:11:46;99521.34;;;18.77;100.00
29903;BME280;30288;50.514;9.678;2023-05-25T09:13:51;99526.94;;;18.85;100.00
29903;BME280;30288;50.514;9.678;2023-05-25T09:15:58;99523.56;;;18.67;100.00
29903;BME280;30288;50.514;9.678;2023-05-25T09:18:07;99523.03;;;18.95;100.00
29903;BME280;30288;50.514;9.678;2023-05-25T09:20:14;99518.13;;;19.08;100.00
29903;BME280;30288;50.514;9.678;2023-05-25T09:22:20;99533.69;;;18.86;100.00
29903;BME280;30288;50.514;9.678;2023-05-25T09:24:26;99527.22;;;18.96;100.00
29903;BME280;30288;50.514;9.678;2023-05-25T09:26:33;99521.94;;;19.16;100.00
29903;BME280;30288;50.514;9.678;2023-05-25T09:28:45;99530.97;;;19.06;100.00
29903;BME280;30288;50.514;9.678;2023-05-25T09:30:50;99533.28;;;19.11;100.00
29903;BME280;30288;50.514;9.678;2023-05-25T09:32:55;99520.47;;;19.12;100.00
29903;BME280;30288;50.514;9.678;2023-05-25T09:35:15;99524.63;;;19.31;100.00
29903;BME280;30288;50.514;9.678;2023-05-25T09:37:21;99528.53;;;19.55;100.00
29903;BME280;30288;50.514;9.678;2023-05-25T09:39:27;99520.47;;;19.78;100.00
29903;BME280;30288;50.514;9.678;2023-05-25T09:41:33;99524.28;;;19.87;100.00
29903;BME280;30288;50.514;9.678;2023-05-25T09:43:38;99518.69;;;19.80;100.00
29903;BME280;30288;50.514;9.678;2023-05-25T09:45:59;99527.75;;;20.01;100.00
29903;BME280;30288;50.514;9.678;2023-05-25T09:48:05;99529.41;;;20.02;100.00
29903;BME280;30288;50.514;9.678;2023-05-25T09:50:13;99519.75;;;20.07;100.00
29903;BME280;30288;50.514;9.678;2023-05-25T09:52:20;99521.72;;;19.87;100.00
29903;BME280;30288;50.514;9.678;2023-05-25T09:54:25;99528.91;;;20.12;100.00
29903;BME280;30288;50.514;9.678;2023-05-25T09:56:32;99528.81;;;20.29;100.00
29903;BME280;30288;50.514;9.678;2023-05-25T09:58:37;99529.59;;;20.31;100.00
29903;BME280;30288;50.514;9.678;2023-05-25T10:00:43;99532.59;;;20.53;100.00
29903;BME280;30288;50.514;9.678;2023-05-25T10:02:49;99528.41;;;20.21;100.00
29903;BME280;30288;50.514;9.678;2023-05-25T10:04:54;99526.84;;;20.02;100.00
29903;BME280;30288;50.514;9.678;2023-05-25T10:07:03;99524.53;;;20.14;100.00
29903;BME280;30288;50.514;9.678;2023-05-25T10:09:10;99517.38;;;20.04;100.00
29903;BME280;30288;50.514;9.678;2023-05-25T10:11:19;99518.19;;;20.36;100.00
29903;BME280;30288;50.514;9.678;2023-05-25T10:13:26;99525.28;;;20.47;100.00
29903;BME280;30288;50.514;9.678;2023-05-25T10:15:35;99518.13;;;20.68;100.00
29903;BME280;30288;50.514;9.678;2023-05-25T10:17:47;99512.78;;;20.86;100.00
29903;BME280;30288;50.514;9.678;2023-05-25T10:19:56;99519.09;;;20.81;100.00
29903;BME280;30288;50.514;9.678;2023-05-25T10:22:12;99516.97;;;20.87;100.00
29903;BME280;30288;50.514;9.678;2023-05-25T10:24:27;99518.59;;;20.74;100.00
29903;BME280;30288;50.514;9.678;2023-05-25T10:26:39;99517.16;;;20.55;100.00
29903;BME280;30288;50.514;9.678;2023-05-25T10:28:49;99527.19;;;20.73;100.00
29903;BME280;30288;50.514;9.678;2023-05-25T10:30:56;99519.16;;;20.79;100.00
29903;BME280;30288;50.514;9.678;2023-05-25T10:33:02;99518.03;;;20.99;100.00
29903;BME280;30288;50.514;9.678;2023-05-25T10:35:09;99517.00;;;21.02;100.00
29903;BME280;30288;50.514;9.678;2023-05-25T10:37:17;99509.94;;;20.91;100.00
29903;BME280;30288;50.514;9.678;2023-05-25T10:39:23;99512.69;;;21.18;100.00
29903;BME280;30288;50.514;9.678;2023-05-25T10:41:29;99514.03;;;21.09;100.00
29903;BME280;30288;50.514;9.678;2023-05-25T10:43:34;99517.22;;;21.13;100.00
29903;BME280;30288;50.514;9.678;2023-05-25T10:45:40;99516.16;;;21.17;100.00
29903;BME280;30288;50.514;9.678;2023-05-25T10:47:46;99520.03;;;21.38;100.00
29903;BME280;30288;50.514;9.678;2023-05-25T10:49:54;99513.69;;;21.29;100.00
29903;BME280;30288;50.514;9.678;2023-05-25T10:52:00;99511.34;;;21.11;100.00
29903;BME280;30288;50.514;9.678;2023-05-25T10:54:12;99514.16;;;21.22;100.00
29903;BME280;30288;50.514;9.678;2023-05-25T10:56:20;99509.78;;;21.38;100.00
29903;BME280;30288;50.514;9.678;2023-05-25T10:58:27;99508.66;;;21.56;100.00
29903;BME280;30288;50.514;9.678;2023-05-25T11:00:32;99513.41;;;21.62;100.00
29903;BME280;30288;50.514;9.678;2023-05-25T11:02:48;99507.38;;;21.35;100.00
29903;BME280;30288;50.514;9.678;2023-05-25T11:05:31;99510.41;;;21.42;100.00
29903;BME280;30288;50.514;9.678;2023-05-25T11:07:52;99511.22;;;21.14;100.00
29903;BME280;30288;50.514;9.678;2023-05-25T11:10:04;99513.88;;;20.96;100.00
29903;BME280;30288;50.514;9.678;2023-05-25T11:12:20;99514.72;;;21.41;100.00